sensor_id;sensor_type;location;lat;lon;timestamp;temperature;humidity
19437;DHT22;9854;50.968;4.168;2023-05-29T00:00:20;16.70;99.90
19437;DHT22;9854;50.968;4.168;2023-05-29T00:02:46;16.70;99.90
19437;DHT22;9854;50.968;4.168;2023-05-29T00:05:13;16.50;99.90
19437;DHT22;9854;50.968;4.168;2023-05-29T00:07:40;16.50;99.90
19437;DHT22;9854;50.968;4.168;2023-05-29T00:10:07;16.40;99.90
19437;DHT22;9854;50.968;4.168;2023-05-29T00:12:34;16.60;99.90
19437;DHT22;9854;50.968;4.168;2023-05-29T00:14:59;16.50;99.90
19437;DHT22;9854;50.968;4.168;2023-05-29T00:17:25;16.40;99.90
19437;DHT22;9854;50.968;4.168;2023-05-29T00:19:51;16.30;99.90
19437;DHT22;9854;50.968;4.168;2023-05-29T00:22:17;16.20;99.90
19437;DHT22;9854;50.968;4.168;2023-05-29T00:24:43;16.20;99.90
19437;DHT22;9854;50.968;4.168;2023-05-29T00:27:09;16.10;99.90
19437;DHT22;9854;50.968;4.168;2023-05-29T00:29:36;16.10;99.90
19437;DHT22;9854;50.968;4.168;2023-05-29T00:32:03;16.00;99.90
19437;DHT22;9854;50.968;4.168;2023-05-29T00:34:29;15.80;99.90
19437;DHT22;9854;50.968;4.168;2023-05-29T00:36:55;15.80;99.90
19437;DHT22;9854;50.968;4.168;2023-05-29T00:39:21;15.70;99.90
19437;DHT22;9854;50.968;4.168;2023-05-29T00:41:47;15.60;99.90
19437;DHT22;9854;50.968;4.168;2023-05-29T00:44:19;15.70;99.90
19437;DHT22;9854;50.968;4.168;2023-05-29T00:46:50;15.70;99.90
19437;DHT22;9854;50.968;4.168;2023-05-29T00:49:18;15.60;99.90
19437;DHT22;9854;50.968;4.168;2023-05-29T00:51:44;15.50;99.90
19437;DHT22;9854;50.968;4.168;2023-05-29T00:54:13;15.40;99.90
19437;DHT22;9854;50.968;4.168;2023-05-29T00:56:40;15.60;99.90
19437;DHT22;9854;50.968;4.168;2023-05-29T00:59:09;15.40;99.90
19437;DHT22;9854;50.968;4.168;2023-05-29T01:01:35;15.40;99.90
19437;DHT22;9854;50.968;4.168;2023-05-29T01:04:03;15.40;99.90
19437;DHT22;9854;50.968;4.168;2023-05-29T01:06:35;15.20;99.90
19437;DHT22;9854;50.968;4.168;2023-05-29T01:09:01;15.00;99.90
19437;DHT22;9854;50.968;4.168;2023-05-29T01:14:21;14.90;99.90
19437;DHT22;9854;50.968;4.168;2023-05-29T01:22:33;14.90;99.90
19437;DHT22;9854;50.968;4.168;2023-05-29T01:25:23;14.90;99.90
19437;DHT22;9854;50.968;4.168;2023-05-29T01:27:49;14.80;99.90
19437;DHT22;9854;50.968;4.168;2023-05-29T01:30:17;14.80;99.90
19437;DHT22;9854;50.968;4.168;2023-05-29T01:32:44;14.80;99.90
19437;DHT22;9854;50.968;4.168;2023-05-29T01:35:10;14.90;99.90
19437;DHT22;9854;50.968;4.168;2023-05-29T01:37:36;14.80;99.90
19437;DHT22;9854;50.968;4.168;2023-05-29T01:40:01;14.90;99.90
19437;DHT22;9854;50.968;4.168;2023-05-29T01:42:29;14.80;99.90
19437;DHT22;9854;50.968;4.168;2023-05-29T01:44:55;14.90;99.90
19437;DHT22;9854;50.968;4.168;2023-05-29T01:47:22;14.90;99.90
19437;DHT22;9854;50.968;4.168;2023-05-29T01:49:50;14.90;99.90
19437;DHT22;9854;50.968;4.168;2023-05-29T01:52:16;14.90;99.90
19437;DHT22;9854;50.968;4.168;2023-05-29T01:54:43;14.90;99.90
19437;DHT22;9854;50.968;4.168;2023-05-29T01:57:09;15.00;99.90
19437;DHT22;9854;50.968;4.168;2023-05-29T01:59:36;14.90;99.90
19437;DHT22;9854;50.968;4.168;2023-05-29T02:02:09;15.00;99.90
19437;DHT22;9854;50.968;4.168;2023-05-29T02:04:35;15.10;99.90
19437;DHT22;9854;50.968;4.168;2023-05-29T02:07:01;14.90;99.90
19437;DHT22;9854;50.968;4.168;2023-05-29T02:09:27;14.80;99.90
19437;DHT22;9854;50.968;4.168;2023-05-29T02:11:52;14.90;99.90
19437;DHT22;9854;50.968;4.168;2023-05-29T02:14:18;14.90;99.90
19437;DHT22;9854;50.968;4.168;2023-05-29T02:16:44;14.80;99.90
19437;DHT22;9854;50.968;4.168;2023-05-29T02:19:10;14.70;99.90
19437;DHT22;9854;50.968;4.168;2023-05-29T02:21:39;14.70;99.90
19437;DHT22;9854;50.968;4.168;2023-05-29T02:24:06;14.60;99.90
19437;DHT22;9854;50.968;4.168;2023-05-29T02:26:32;14.70;99.90
19437;DHT22;9854;50.968;4.168;2023-05-29T02:28:58;14.70;99.90
19437;DHT22;9854;50.968;4.168;2023-05-29T02:31:24;14.60;99.90
19437;DHT22;9854;50.968;4.168;2023-05-29T02:33:49;14.70;99.90
19437;DHT22;9854;50.968;4.168;2023-05-29T02:36:15;14.90;99.90
19437;DHT22;9854;50.968;4.168;2023-05-29T02:38:41;14.80;99.90
19437;DHT22;9854;50.968;4.168;2023-05-29T02:41:07;14.90;99.90
19437;DHT22;9854;50.968;4.168;2023-05-29T02:43:33;14.90;99.90
19437;DHT22;9854;50.968;4.168;2023-05-29T02:45:58;14.70;99.90
19437;DHT22;9854;50.968;4.168;2023-05-29T02:48:24;14.50;99.90
19437;DHT22;9854;50.968;4.168;2023-05-29T02:50:51;14.40;99.90
19437;DHT22;9854;50.968;4.168;2023-05-29T02:53:16;14.20;99.90
19437;DHT22;9854;50.968;4.168;2023-05-29T02:55:42;14.00;99.90
19437;DHT22;9854;50.968;4.168;2023-05-29T02:58:08;13.90;99.90
19437;DHT22;9854;50.968;4.168;2023-05-29T03:00:33;14.00;99.90
19437;DHT22;9854;50.968;4.168;2023-05-29T03:03:00;13.90;99.90
19437;DHT22;9854;50.968;4.168;2023-05-29T03:05:25;14.00;99.90
19437;DHT22;9854;50.968;4.168;2023-05-29T03:07:51;13.90;99.90
19437;DHT22;9854;50.968;4.168;2023-05-29T03:10:17;14.00;99.90
19437;DHT22;9854;50.968;4.168;2023-05-29T03:12:43;14.00;99.90
19437;DHT22;9854;50.968;4.168;2023-05-29T03:15:10;14.00;99.90
19437;DHT22;9854;50.968;4.168;2023-05-29T03:17:35;14.10;99.90
19437;DHT22;9854;50.968;4.168;2023-05-29T03:20:03;14.10;99.90
19437;DHT22;9854;50.968;4.168;2023-05-29T03:22:32;14.00;99.90
19437;DHT22;9854;50.968;4.168;2023-05-29T03:24:57;13.90;99.90
19437;DHT22;9854;50.968;4.168;2023-05-29T03:27:23;13.90;99.90
19437;DHT22;9854;50.968;4.168;2023-05-29T03:29:49;13.80;99.90
19437;DHT22;9854;50.968;4.168;2023-05-29T03:32:14;13.90;99.90
19437;DHT22;9854;50.968;4.168;2023-05-29T03:34:40;14.00;99.90
19437;DHT22;9854;50.968;4.168;2023-05-29T03:37:06;13.90;99.90
19437;DHT22;9854;50.968;4.168;2023-05-29T03:39:31;13.80;99.90
19437;DHT22;9854;50.968;4.168;2023-05-29T03:41:57;13.90;99.90
19437;DHT22;9854;50.968;4.168;2023-05-29T03:44:23;13.80;99.90
19437;DHT22;9854;50.968;4.168;2023-05-29T03:46:50;13.60;99.90
19437;DHT22;9854;50.968;4.168;2023-05-29T03:49:16;13.70;99.90
19437;DHT22;9854;50.968;4.168;2023-05-29T03:51:42;13.60;99.90
19437;DHT22;9854;50.968;4.168;2023-05-29T03:54:07;13.50;99.90
19437;DHT22;9854;50.968;4.168;2023-05-29T03:56:33;13.50;99.90
19437;DHT22;9854;50.968;4.168;2023-05-29T03:59:00;13.50;99.90
19437;DHT22;9854;50.968;4.168;2023-05-29T04:01:26;13.50;99.90
19437;DHT22;9854;50.968;4.168;2023-05-29T04:03:51;13.60;99.90
19437;DHT22;9854;50.968;4.168;2023-05-29T04:06:17;13.60;99.90
19437;DHT22;9854;50.968;4.168;2023-05-29T04:08:43;13.60;99.90
19437;DHT22;9854;50.968;4.168;2023-05-29T04:11:08;13.70;99.90
19437;DHT22;9854;50.968;4.168;2023-05-29T04:13:34;13.70;99.90
19437;DHT22;9854;50.968;4.168;2023-05-29T04:16:00;13.50;99.90
19437;DHT22;9854;50.968;4.168;2023-05-29T04:18:26;13.60;99.90
19437;DHT22;9854;50.968;4.168;2023-05-29T04:20:51;13.50;99.90
19437;DHT22;9854;50.968;4.168;2023-05-29T04:23:18;13.40;99.90
19437;DHT22;9854;50.968;4.168;2023-05-29T04:25:44;13.40;99.90
19437;DHT22;9854;50.968;4.168;2023-05-29T04:28:10;13.30;99.90
19437;DHT22;9854;50.968;4.168;2023-05-29T04:30:36;13.30;99.90
19437;DHT22;9854;50.968;4.168;2023-05-29T04:33:01;13.40;99.90
19437;DHT22;9854;50.968;4.168;2023-05-29T04:35:28;13.50;99.90
19437;DHT22;9854;50.968;4.168;2023-05-29T04:37:54;13.50;99.90
19437;DHT22;9854;50.968;4.168;2023-05-29T04:40:22;13.60;99.90
19437;DHT22;9854;50.968;4.168;2023-05-29T04:42:47;13.60;99.90
19437;DHT22;9854;50.968;4.168;2023-05-29T04:45:13;13.50;99.90
19437;DHT22;9854;50.968;4.168;2023-05-29T04:47:39;13.60;99.90
19437;DHT22;9854;50.968;4.168;2023-05-29T04:50:12;13.70;99.90
19437;DHT22;9854;50.968;4.168;2023-05-29T04:52:38;13.70;99.90
19437;DHT22;9854;50.968;4.168;2023-05-29T04:55:07;13.70;99.90
19437;DHT22;9854;50.968;4.168;2023-05-29T04:57:33;13.80;99.90
19437;DHT22;9854;50.968;4.168;2023-05-29T04:59:58;13.70;99.90
19437;DHT22;9854;50.968;4.168;2023-05-29T05:02:24;13.80;99.90
19437;DHT22;9854;50.968;4.168;2023-05-29T05:04:50;13.80;99.90
19437;DHT22;9854;50.968;4.168;2023-05-29T05:07:16;13.80;99.90
19437;DHT22;9854;50.968;4.168;2023-05-29T05:09:42;13.90;99.90
19437;DHT22;9854;50.968;4.168;2023-05-29T05:12:07;13.80;99.90
19437;DHT22;9854;50.968;4.168;2023-05-29T05:14:34;13.80;99.90
19437;DHT22;9854;50.968;4.168;2023-05-29T05:17:00;14.00;99.90
19437;DHT22;9854;50.968;4.168;2023-05-29T05:19:25;14.00;99.90
19437;DHT22;9854;50.968;4.168;2023-05-29T05:21:51;13.80;99.90
19437;DHT22;9854;50.968;4.168;2023-05-29T05:24:17;13.70;99.90
19437;DHT22;9854;50.968;4.168;2023-05-29T05:26:42;13.90;99.90
19437;DHT22;9854;50.968;4.168;2023-05-29T05:29:08;14.10;99.90
19437;DHT22;9854;50.968;4.168;2023-05-29T05:31:34;14.00;99.90
19437;DHT22;9854;50.968;4.168;2023-05-29T05:33:59;13.90;99.90
19437;DHT22;9854;50.968;4.168;2023-05-29T05:36:25;13.90;99.90
19437;DHT22;9854;50.968;4.168;2023-05-29T05:38:51;13.90;99.90
19437;DHT22;9854;50.968;4.168;2023-05-29T05:41:16;14.10;99.90
19437;DHT22;9854;50.968;4.168;2023-05-29T05:43:42;14.20;99.90
19437;DHT22;9854;50.968;4.168;2023-05-29T05:46:08;14.10;99.90
19437;DHT22;9854;50.968;4.168;2023-05-29T05:48:33;14.10;99.90
19437;DHT22;9854;50.968;4.168;2023-05-29T05:50:59;14.20;99.90
19437;DHT22;9854;50.968;4.168;2023-05-29T05:53:25;14.20;99.90
19437;DHT22;9854;50.968;4.168;2023-05-29T05:55:50;14.30;99.90
19437;DHT22;9854;50.968;4.168;2023-05-29T05:58:16;14.30;99.90
19437;DHT22;9854;50.968;4.168;2023-05-29T06:00:42;14.30;99.90
19437;DHT22;9854;50.968;4.168;2023-05-29T06:03:08;14.40;99.90
19437;DHT22;9854;50.968;4.168;2023-05-29T06:05:33;14.60;99.90
19437;DHT22;9854;50.968;4.168;2023-05-29T06:08:01;14.50;99.90
19437;DHT22;9854;50.968;4.168;2023-05-29T06:10:27;14.40;99.90
19437;DHT22;9854;50.968;4.168;2023-05-29T06:12:53;14.50;99.90
19437;DHT22;9854;50.968;4.168;2023-05-29T06:15:19;14.60;99.90
19437;DHT22;9854;50.968;4.168;2023-05-29T06:17:44;14.70;99.90
19437;DHT22;9854;50.968;4.168;2023-05-29T06:20:10;14.90;99.90
19437;DHT22;9854;50.968;4.168;2023-05-29T06:22:39;15.00;99.90
19437;DHT22;9854;50.968;4.168;2023-05-29T06:25:05;15.10;99.90
19437;DHT22;9854;50.968;4.168;2023-05-29T06:27:31;15.20;99.90
19437;DHT22;9854;50.968;4.168;2023-05-29T06:29:57;15.10;99.90
19437;DHT22;9854;50.968;4.168;2023-05-29T06:32:23;15.20;99.90
19437;DHT22;9854;50.968;4.168;2023-05-29T06:34:48;15.30;99.90
19437;DHT22;9854;50.968;4.168;2023-05-29T06:37:14;15.20;99.90
19437;DHT22;9854;50.968;4.168;2023-05-29T06:39:40;15.00;99.90
19437;DHT22;9854;50.968;4.168;2023-05-29T06:42:07;15.10;99.90
19437;DHT22;9854;50.968;4.168;2023-05-29T06:44:33;15.20;99.90
19437;DHT22;9854;50.968;4.168;2023-05-29T06:46:59;15.30;99.90
19437;DHT22;9854;50.968;4.168;2023-05-29T06:49:25;15.40;99.90
19437;DHT22;9854;50.968;4.168;2023-05-29T06:51:50;15.20;99.90
19437;DHT22;9854;50.968;4.168;2023-05-29T06:54:16;15.10;99.90
19437;DHT22;9854;50.968;4.168;2023-05-29T06:56:42;15.30;99.90
19437;DHT22;9854;50.968;4.168;2023-05-29T06:59:08;15.30;99.90
19437;DHT22;9854;50.968;4.168;2023-05-29T07:01:33;15.30;99.90
19437;DHT22;9854;50.968;4.168;2023-05-29T07:03:59;15.30;99.90
19437;DHT22;9854;50.968;4.168;2023-05-29T07:06:25;15.30;99.90
19437;DHT22;9854;50.968;4.168;2023-05-29T07:08:51;15.40;99.90
19437;DHT22;9854;50.968;4.168;2023-05-29T07:11:16;15.50;99.90
19437;DHT22;9854;50.968;4.168;2023-05-29T07:13:42;15.70;99.90
19437;DHT22;9854;50.968;4.168;2023-05-29T07:16:07;15.70;99.90
19437;DHT22;9854;50.968;4.168;2023-05-29T07:18:33;15.60;99.90
19437;DHT22;9854;50.968;4.168;2023-05-29T07:20:59;15.60;99.90
19437;DHT22;9854;50.968;4.168;2023-05-29T07:23:25;15.50;99.90
19437;DHT22;9854;50.968;4.168;2023-05-29T07:25:51;15.20;99.90
19437;DHT22;9854;50.968;4.168;2023-05-29T07:28:17;15.10;99.90
19437;DHT22;9854;50.968;4.168;2023-05-29T07:30:42;15.20;99.90
19437;DHT22;9854;50.968;4.168;2023-05-29T07:33:08;15.10;99.90
19437;DHT22;9854;50.968;4.168;2023-05-29T07:35:34;15.10;99.90
19437;DHT22;9854;50.968;4.168;2023-05-29T07:38:00;15.20;99.90
19437;DHT22;9854;50.968;4.168;2023-05-29T07:40:28;15.20;99.90
19437;DHT22;9854;50.968;4.168;2023-05-29T07:42:53;15.30;99.90
19437;DHT22;9854;50.968;4.168;2023-05-29T07:45:19;15.50;99.90
19437;DHT22;9854;50.968;4.168;2023-05-29T07:47:45;15.60;99.90
19437;DHT22;9854;50.968;4.168;2023-05-29T07:50:11;15.80;99.90
19437;DHT22;9854;50.968;4.168;2023-05-29T07:52:36;16.00;99.90
19437;DHT22;9854;50.968;4.168;2023-05-29T07:55:02;15.90;99.90
19437;DHT22;9854;50.968;4.168;2023-05-29T07:57:28;15.80;99.90
19437;DHT22;9854;50.968;4.168;2023-05-29T07:59:54;16.00;99.90
19437;DHT22;9854;50.968;4.168;2023-05-29T08:02:20;15.80;99.90
19437;DHT22;9854;50.968;4.168;2023-05-29T08:04:46;15.90;99.90
19437;DHT22;9854;50.968;4.168;2023-05-29T08:07:12;16.00;99.90
19437;DHT22;9854;50.968;4.168;2023-05-29T08:09:38;16.10;99.90
19437;DHT22;9854;50.968;4.168;2023-05-29T08:12:04;16.30;99.90
19437;DHT22;9854;50.968;4.168;2023-05-29T08:14:31;16.50;99.90
19437;DHT22;9854;50.968;4.168;2023-05-29T08:16:56;16.70;99.90
19437;DHT22;9854;50.968;4.168;2023-05-29T08:19:22;16.80;99.90
19437;DHT22;9854;50.968;4.168;2023-05-29T08:21:48;17.00;99.90
19437;DHT22;9854;50.968;4.168;2023-05-29T08:24:14;17.20;99.90
19437;DHT22;9854;50.968;4.168;2023-05-29T08:26:39;17.20;99.90
19437;DHT22;9854;50.968;4.168;2023-05-29T08:29:05;17.10;99.90
19437;DHT22;9854;50.968;4.168;2023-05-29T08:31:32;17.00;99.90
19437;DHT22;9854;50.968;4.168;2023-05-29T08:33:58;17.00;99.90
19437;DHT22;9854;50.968;4.168;2023-05-29T08:36:24;17.20;99.90
19437;DHT22;9854;50.968;4.168;2023-05-29T08:38:50;17.00;99.90
19437;DHT22;9854;50.968;4.168;2023-05-29T08:41:27;17.00;99.90
19437;DHT22;9854;50.968;4.168;2023-05-29T08:43:54;17.00;99.90
19437;DHT22;9854;50.968;4.168;2023-05-29T08:46:21;17.00;99.90
19437;DHT22;9854;50.968;4.168;2023-05-29T08:48:49;17.20;99.90
19437;DHT22;9854;50.968;4.168;2023-05-29T08:51:20;17.40;99.90
19437;DHT22;9854;50.968;4.168;2023-05-29T08:53:47;17.60;99.90
19437;DHT22;9854;50.968;4.168;2023-05-29T08:56:12;17.40;99.90
19437;DHT22;9854;50.968;4.168;2023-05-29T08:58:38;17.50;99.90
19437;DHT22;9854;50.968;4.168;2023-05-29T09:01:05;17.40;99.90
19437;DHT22;9854;50.968;4.168;2023-05-29T09:03:30;17.30;99.90
19437;DHT22;9854;50.968;4.168;2023-05-29T09:06:00;17.30;99.90
19437;DHT22;9854;50.968;4.168;2023-05-29T09:08:26;17.40;99.90
19437;DHT22;9854;50.968;4.168;2023-05-29T09:10:52;17.50;99.90
19437;DHT22;9854;50.968;4.168;2023-05-29T09:13:18;17.70;99.90
19437;DHT22;9854;50.968;4.168;2023-05-29T09:15:44;17.80;99.90
19437;DHT22;9854;50.968;4.168;2023-05-29T09:18:09;17.90;99.90
19437;DHT22;9854;50.968;4.168;2023-05-29T09:20:35;18.20;99.90
19437;DHT22;9854;50.968;4.168;2023-05-29T09:23:06;18.30;99.90
19437;DHT22;9854;50.968;4.168;2023-05-29T09:25:41;18.40;99.90
19437;DHT22;9854;50.968;4.168;2023-05-29T09:28:11;18.30;99.90
19437;DHT22;9854;50.968;4.168;2023-05-29T09:30:42;18.40;99.90
19437;DHT22;9854;50.968;4.168;2023-05-29T09:33:15;18.30;99.90
19437;DHT22;9854;50.968;4.168;2023-05-29T09:35:43;18.50;99.90
19437;DHT22;9854;50.968;4.168;2023-05-29T09:38:11;18.50;99.90
19437;DHT22;9854;50.968;4.168;2023-05-29T09:40:39;18.60;99.90
19437;DHT22;9854;50.968;4.168;2023-05-29T09:43:16;18.50;99.90
19437;DHT22;9854;50.968;4.168;2023-05-29T09:45:44;18.50;99.90
19437;DHT22;9854;50.968;4.168;2023-05-29T09:48:23;18.60;99.90
19437;DHT22;9854;50.968;4.168;2023-05-29T09:50:49;18.90;99.90
19437;DHT22;9854;50.968;4.168;2023-05-29T09:53:22;19.00;99.90
19437;DHT22;9854;50.968;4.168;2023-05-29T09:55:59;18.80;99.90
19437;DHT22;9854;50.968;4.168;2023-05-29T09:58:25;18.80;99.90
19437;DHT22;9854;50.968;4.168;2023-05-29T10:00:52;18.80;99.90
19437;DHT22;9854;50.968;4.168;2023-05-29T10:03:18;18.60;99.90
19437;DHT22;9854;50.968;4.168;2023-05-29T10:05:50;18.70;99.90
19437;DHT22;9854;50.968;4.168;2023-05-29T10:08:18;18.70;99.90
19437;DHT22;9854;50.968;4.168;2023-05-29T10:10:46;18.90;99.90
19437;DHT22;9854;50.968;4.168;2023-05-29T10:13:14;18.90;99.90
19437;DHT22;9854;50.968;4.168;2023-05-29T10:15:41;18.90;99.90
19437;DHT22;9854;50.968;4.168;2023-05-29T10:18:42;19.20;99.90
19437;DHT22;9854;50.968;4.168;2023-05-29T10:21:11;19.30;99.90
19437;DHT22;9854;50.968;4.168;2023-05-29T10:23:38;19.20;99.90
19437;DHT22;9854;50.968;4.168;2023-05-29T10:26:12;19.60;99.90
19437;DHT22;9854;50.968;4.168;2023-05-29T10:28:43;19.90;99.90
19437;DHT22;9854;50.968;4.168;2023-05-29T10:31:16;20.10;99.90
19437;DHT22;9854;50.968;4.168;2023-05-29T10:36:17;20.20;99.90
19437;DHT22;9854;50.968;4.168;2023-05-29T10:38:46;20.50;99.90
19437;DHT22;9854;50.968;4.168;2023-05-29T10:41:32;20.70;99.90
19437;DHT22;9854;50.968;4.168;2023-05-29T10:44:00;20.60;99.90
19437;DHT22;9854;50.968;4.168;2023-05-29T10:49:21;20.80;99.90
19437;DHT22;9854;50.968;4.168;2023-05-29T10:51:48;20.60;99.90
19437;DHT22;9854;50.968;4.168;2023-05-29T10:54:14;20.80;99.90
19437;DHT22;9854;50.968;4.168;2023-05-29T10:56:40;21.20;99.90
19437;DHT22;9854;50.968;4.168;2023-05-29T10:59:08;21.00;99.90
19437;DHT22;9854;50.968;4.168;2023-05-29T11:01:34;20.90;99.90
19437;DHT22;9854;50.968;4.168;2023-05-29T11:06:41;21.10;99.90
19437;DHT22;9854;50.968;4.168;2023-05-29T11:09:30;20.90;99.90
19437;DHT22;9854;50.968;4.168;2023-05-29T11:12:17;20.80;99.90
19437;DHT22;9854;50.968;4.168;2023-05-29T11:15:05;21.00;99.90
19437;DHT22;9854;50.968;4.168;2023-05-29T11:25:21;21.00;99.90
19437;DHT22;9854;50.968;4.168;2023-05-29T11:27:47;21.50;99.90
19437;DHT22;9854;50.968;4.168;2023-05-29T11:30:13;21.80;99.90
19437;DHT22;9854;50.968;4.168;2023-05-29T11:32:40;21.90;99.90
19437;DHT22;9854;50.968;4.168;2023-05-29T11:35:09;21.80;99.90
19437;DHT22;9854;50.968;4.168;2023-05-29T11:37:37;21.70;99.90
19437;DHT22;9854;50.968;4.168;2023-05-29T11:40:07;21.30;99.90
19437;DHT22;9854;50.968;4.168;2023-05-29T11:42:41;21.30;99.90
19437;DHT22;9854;50.968;4.168;2023-05-29T11:50:21;21.40;99.90
19437;DHT22;9854;50.968;4.168;2023-05-29T11:52:48;21.70;99.90
19437;DHT22;9854;50.968;4.168;2023-05-29T11:55:13;21.70;99.90
19437;DHT22;9854;50.968;4.168;2023-05-29T11:57:39;21.80;99.90
19437;DHT22;9854;50.968;4.168;2023-05-29T12:00:06;22.00;99.90
19437;DHT22;9854;50.968;4.168;2023-05-29T12:02:37;22.30;99.90
19437;DHT22;9854;50.968;4.168;2023-05-29T12:05:04;22.50;99.90
19437;DHT22;9854;50.968;4.168;2023-05-29T12:07:32;22.70;99.90
19437;DHT22;9854;50.968;4.168;2023-05-29T12:10:18;22.90;99.90
19437;DHT22;9854;50.968;4.168;2023-05-29T12:12:52;22.70;99.90
19437;DHT22;9854;50.968;4.168;2023-05-29T12:15:18;22.90;99.90
19437;DHT22;9854;50.968;4.168;2023-05-29T12:17:45;22.70;99.90
19437;DHT22;9854;50.968;4.168;2023-05-29T12:20:12;22.70;99.90
19437;DHT22;9854;50.968;4.168;2023-05-29T12:22:39;22.60;99.90
19437;DHT22;9854;50.968;4.168;2023-05-29T12:27:38;23.10;99.90
19437;DHT22;9854;50.968;4.168;2023-05-29T12:32:41;23.10;99.90
19437;DHT22;9854;50.968;4.168;2023-05-29T12:35:13;23.10;99.90
19437;DHT22;9854;50.968;4.168;2023-05-29T12:40:26;23.30;99.90
19437;DHT22;9854;50.968;4.168;2023-05-29T12:43:02;23.10;99.90
19437;DHT22;9854;50.968;4.168;2023-05-29T12:45:29;23.20;99.90
19437;DHT22;9854;50.968;4.168;2023-05-29T12:55:28;23.10;99.90
19437;DHT22;9854;50.968;4.168;2023-05-29T12:57:54;23.00;99.90
19437;DHT22;9854;50.968;4.168;2023-05-29T13:00:21;23.30;99.90
19437;DHT22;9854;50.968;4.168;2023-05-29T13:02:48;23.40;99.90
19437;DHT22;9854;50.968;4.168;2023-05-29T13:05:14;23.50;99.90
19437;DHT22;9854;50.968;4.168;2023-05-29T13:07:50;23.90;99.90
19437;DHT22;9854;50.968;4.168;2023-05-29T13:10:16;23.90;99.90
19437;DHT22;9854;50.968;4.168;2023-05-29T13:12:43;23.90;99.90
19437;DHT22;9854;50.968;4.168;2023-05-29T13:15:10;23.70;99.90
19437;DHT22;9854;50.968;4.168;2023-05-29T13:17:37;23.60;99.90
19437;DHT22;9854;50.968;4.168;2023-05-29T13:20:02;23.60;99.90
19437;DHT22;9854;50.968;4.168;2023-05-29T13:22:31;23.50;99.90
19437;DHT22;9854;50.968;4.168;2023-05-29T13:24:58;23.60;99.90
19437;DHT22;9854;50.968;4.168;2023-05-29T13:27:25;23.60;99.90
19437;DHT22;9854;50.968;4.168;2023-05-29T13:29:51;23.60;99.90
19437;DHT22;9854;50.968;4.168;2023-05-29T13:32:17;23.70;99.90
19437;DHT22;9854;50.968;4.168;2023-05-29T13:34:42;23.50;99.90
19437;DHT22;9854;50.968;4.168;2023-05-29T13:37:08;23.70;99.90
19437;DHT22;9854;50.968;4.168;2023-05-29T13:39:34;23.90;99.90
19437;DHT22;9854;50.968;4.168;2023-05-29T13:41:59;24.00;99.90
19437;DHT22;9854;50.968;4.168;2023-05-29T13:44:25;24.30;99.90
19437;DHT22;9854;50.968;4.168;2023-05-29T13:46:51;24.40;99.90
19437;DHT22;9854;50.968;4.168;2023-05-29T13:49:17;24.60;99.90
19437;DHT22;9854;50.968;4.168;2023-05-29T13:51:42;24.60;99.90
19437;DHT22;9854;50.968;4.168;2023-05-29T13:54:10;24.70;99.90
19437;DHT22;9854;50.968;4.168;2023-05-29T13:56:36;24.40;99.90
19437;DHT22;9854;50.968;4.168;2023-05-29T13:59:02;24.20;99.90
19437;DHT22;9854;50.968;4.168;2023-05-29T14:01:31;24.50;99.90
19437;DHT22;9854;50.968;4.168;2023-05-29T14:03:57;24.50;99.90
19437;DHT22;9854;50.968;4.168;2023-05-29T14:06:23;24.70;99.90
19437;DHT22;9854;50.968;4.168;2023-05-29T14:08:49;24.60;99.90
19437;DHT22;9854;50.968;4.168;2023-05-29T14:11:15;24.70;99.90
19437;DHT22;9854;50.968;4.168;2023-05-29T14:13:40;24.60;99.90
19437;DHT22;9854;50.968;4.168;2023-05-29T14:16:06;24.50;99.90
19437;DHT22;9854;50.968;4.168;2023-05-29T14:18:32;24.40;99.90
19437;DHT22;9854;50.968;4.168;2023-05-29T14:20:57;24.30;99.90
19437;DHT22;9854;50.968;4.168;2023-05-29T14:23:23;24.40;99.90
19437;DHT22;9854;50.968;4.168;2023-05-29T14:25:49;24.40;99.90
19437;DHT22;9854;50.968;4.168;2023-05-29T14:28:16;24.60;99.90
19437;DHT22;9854;50.968;4.168;2023-05-29T14:30:42;24.90;99.90
19437;DHT22;9854;50.968;4.168;2023-05-29T14:33:08;25.00;99.90
19437;DHT22;9854;50.968;4.168;2023-05-29T14:35:34;25.10;99.90
19437;DHT22;9854;50.968;4.168;2023-05-29T14:38:00;25.20;99.90
19437;DHT22;9854;50.968;4.168;2023-05-29T14:40:26;25.30;99.90
19437;DHT22;9854;50.968;4.168;2023-05-29T14:42:52;25.70;99.90
19437;DHT22;9854;50.968;4.168;2023-05-29T14:45:17;25.90;99.90
19437;DHT22;9854;50.968;4.168;2023-05-29T14:47:43;26.30;99.90
19437;DHT22;9854;50.968;4.168;2023-05-29T14:50:09;25.90;99.90
19437;DHT22;9854;50.968;4.168;2023-05-29T14:52:35;25.60;99.90
19437;DHT22;9854;50.968;4.168;2023-05-29T14:55:04;25.30;99.90
19437;DHT22;9854;50.968;4.168;2023-05-29T14:57:31;25.30;99.90
19437;DHT22;9854;50.968;4.168;2023-05-29T14:59:59;25.30;99.90
19437;DHT22;9854;50.968;4.168;2023-05-29T15:02:24;25.50;99.90
19437;DHT22;9854;50.968;4.168;2023-05-29T15:04:50;25.70;99.90
19437;DHT22;9854;50.968;4.168;2023-05-29T15:07:17;25.80;99.90
19437;DHT22;9854;50.968;4.168;2023-05-29T15:09:43;25.20;99.90
19437;DHT22;9854;50.968;4.168;2023-05-29T15:12:09;25.30;99.90
19437;DHT22;9854;50.968;4.168;2023-05-29T15:14:35;24.90;99.90
19437;DHT22;9854;50.968;4.168;2023-05-29T15:17:01;24.40;99.90
19437;DHT22;9854;50.968;4.168;2023-05-29T15:19:27;24.40;99.90
19437;DHT22;9854;50.968;4.168;2023-05-29T15:21:52;24.30;99.90
19437;DHT22;9854;50.968;4.168;2023-05-29T15:24:18;24.30;99.90
19437;DHT22;9854;50.968;4.168;2023-05-29T15:26:44;23.80;99.90
19437;DHT22;9854;50.968;4.168;2023-05-29T15:29:10;23.80;99.90
19437;DHT22;9854;50.968;4.168;2023-05-29T15:31:36;23.90;99.90
19437;DHT22;9854;50.968;4.168;2023-05-29T15:34:02;23.70;99.90
19437;DHT22;9854;50.968;4.168;2023-05-29T15:36:28;23.90;99.90
19437;DHT22;9854;50.968;4.168;2023-05-29T15:38:54;23.80;99.90
19437;DHT22;9854;50.968;4.168;2023-05-29T15:41:20;24.00;99.90
19437;DHT22;9854;50.968;4.168;2023-05-29T15:43:46;24.40;99.90
19437;DHT22;9854;50.968;4.168;2023-05-29T15:46:12;25.50;99.90
19437;DHT22;9854;50.968;4.168;2023-05-29T15:48:38;26.00;99.90
19437;DHT22;9854;50.968;4.168;2023-05-29T15:51:03;26.40;99.90
19437;DHT22;9854;50.968;4.168;2023-05-29T15:53:29;27.30;99.90
19437;DHT22;9854;50.968;4.168;2023-05-29T15:55:55;27.70;99.90
19437;DHT22;9854;50.968;4.168;2023-05-29T15:58:20;27.70;99.90
19437;DHT22;9854;50.968;4.168;2023-05-29T16:00:47;27.20;99.90
19437;DHT22;9854;50.968;4.168;2023-05-29T16:03:13;26.90;99.90
19437;DHT22;9854;50.968;4.168;2023-05-29T16:05:38;27.60;99.90
19437;DHT22;9854;50.968;4.168;2023-05-29T16:08:04;27.70;99.90
19437;DHT22;9854;50.968;4.168;2023-05-29T16:10:30;27.10;99.90
19437;DHT22;9854;50.968;4.168;2023-05-29T16:12:56;27.40;99.90
19437;DHT22;9854;50.968;4.168;2023-05-29T16:15:22;27.00;99.90
19437;DHT22;9854;50.968;4.168;2023-05-29T16:17:48;27.60;99.90
19437;DHT22;9854;50.968;4.168;2023-05-29T16:20:13;27.30;99.90
19437;DHT22;9854;50.968;4.168;2023-05-29T16:22:39;27.60;99.90
19437;DHT22;9854;50.968;4.168;2023-05-29T16:25:06;28.00;99.90
19437;DHT22;9854;50.968;4.168;2023-05-29T16:27:32;28.30;99.90